Time;durP1;ratioP1;P1;durP2;ratioP2;P2;SDS_P1;SDS_P2;PMS_P1;PMS_P2;Temp;Humidity;BMP_temperature;BMP_pressure;BME280_temperature;BME280_humidity;BME280_pressure;Samples;Min_cycle;Max_cycle;Signal;HPM_P1;HPM_P2
2023/05/19 00:01:31;;;;;;;13.93;5.80;;;7.20;99.90;;;;;;5069801;28;20118;-71
2023/05/19 00:04:01;;;;;;;16.60;5.88;;;7.20;99.90;;;;;;5066859;28;20088;-71
2023/05/19 00:06:32;;;;;;;12.88;6.18;;;7.20;99.90;;;;;;5069173;28;20140;-71
2023/05/19 00:08:59;;;;;;;12.43;6.13;;;7.20;99.90;;;;;;5070048;28;20070;-71
2023/05/19 00:11:25;;;;;;;14.23;6.75;;;7.20;99.90;;;;;;5069926;28;20075;-71
2023/05/19 00:13:56;;;;;;;13.32;6.00;;;7.20;99.90;;;;;;5086281;28;20119;-71
2023/05/19 00:16:23;;;;;;;19.35;6.00;;;7.10;99.90;;;;;;5086720;28;20055;-71
2023/05/19 00:18:49;;;;;;;14.35;5.82;;;7.10;99.90;;;;;;5086081;28;20043;-71
2023/05/19 00:21:15;;;;;;;13.03;6.43;;;7.10;99.90;;;;;;5085033;28;20463;-71
2023/05/19 00:23:41;;;;;;;15.57;6.45;;;7.10;99.90;;;;;;5069389;28;20418;-71
2023/05/19 00:26:07;;;;;;;16.33;6.07;;;7.10;99.90;;;;;;5090042;28;20117;-71
2023/05/19 00:28:32;;;;;;;16.40;6.47;;;7.10;99.90;;;;;;5090299;28;20280;-71
2023/05/19 00:30:58;;;;;;;16.50;6.20;;;7.10;99.90;;;;;;5088873;28;20131;-71
2023/05/19 00:33:24;;;;;;;16.97;6.60;;;7.10;99.90;;;;;;5090163;28;20048;-71
2023/05/19 00:35:50;;;;;;;14.33;6.30;;;7.10;99.90;;;;;;5087158;28;20036;-71
2023/05/19 00:38:15;;;;;;;12.43;5.27;;;7.10;99.90;;;;;;5075643;28;20037;-71
2023/05/19 00:40:41;;;;;;;15.83;5.67;;;7.00;99.90;;;;;;5073005;28;20118;-71
2023/05/19 00:43:07;;;;;;;15.80;5.80;;;7.00;99.90;;;;;;5073475;28;20068;-71
2023/05/19 00:45:34;;;;;;;15.73;6.53;;;7.00;99.90;;;;;;5089504;28;20044;-71
2023/05/19 00:48:00;;;;;;;17.00;6.65;;;6.90;99.90;;;;;;5072940;28;20044;-71
2023/05/19 00:50:27;;;;;;;19.20;6.27;;;6.90;99.90;;;;;;5088364;28;20085;-71
2023/05/19 00:52:54;;;;;;;16.92;6.13;;;6.90;99.90;;;;;;5071920;28;20075;-71
2023/05/19 00:55:27;;;;;;;15.15;7.10;;;6.80;99.90;;;;;;5072734;28;20051;-71
2023/05/19 00:57:55;;;;;;;18.13;6.55;;;6.80;99.90;;;;;;5089416;28;20032;-71
2023/05/19 01:00:21;;;;;;;18.92;6.78;;;6.80;99.90;;;;;;5089346;28;20323;-71
2023/05/19 01:02:46;;;;;;;12.90;6.07;;;6.80;99.90;;;;;;5079233;28;20039;-71
2023/05/19 01:05:12;;;;;;;17.30;6.30;;;6.80;99.90;;;;;;5090393;28;20043;-71
2023/05/19 01:07:40;;;;;;;14.80;6.33;;;6.90;99.90;;;;;;5090751;28;20048;-71
2023/05/19 01:10:06;;;;;;;17.77;6.07;;;6.90;99.90;;;;;;5072206;28;20051;-71
2023/05/19 01:12:33;;;;;;;18.55;6.63;;;6.90;99.90;;;;;;5089416;28;20127;-71
2023/05/19 01:14:59;;;;;;;13.35;6.60;;;7.00;99.90;;;;;;5089332;28;20249;-71
2023/05/19 01:17:44;;;;;;;16.70;6.80;;;6.90;99.90;;;;;;5088667;28;20549;-71
2023/05/19 01:20:20;;;;;;;15.25;6.60;;;6.90;99.90;;;;;;5089003;28;20122;-71
2023/05/19 01:23:15;;;;;;;17.27;6.85;;;7.00;99.90;;;;;;5071821;28;20036;-71
2023/05/19 01:26:05;;;;;;;17.92;6.78;;;7.00;99.90;;;;;;5071675;28;20047;-71
2023/05/19 01:28:58;;;;;;;15.95;6.82;;;7.00;99.90;;;;;;5083952;28;20044;-71
2023/05/19 01:31:25;;;;;;;17.60;7.18;;;7.00;99.90;;;;;;5070198;28;20063;-71
2023/05/19 01:33:52;;;;;;;20.00;7.78;;;7.10;99.90;;;;;;5072212;28;20063;-71
2023/05/19 01:36:21;;;;;;;18.05;7.18;;;7.10;99.90;;;;;;5065166;28;20735;-71
2023/05/19 01:38:51;;;;;;;15.43;6.70;;;7.10;99.90;;;;;;5070242;28;20032;-71
2023/05/19 01:41:19;;;;;;;16.08;6.53;;;7.10;99.90;;;;;;5063127;28;20500;-71
2023/05/19 01:43:46;;;;;;;12.82;5.95;;;7.10;99.90;;;;;;5058031;28;20533;-71
2023/05/19 01:46:13;;;;;;;15.23;6.07;;;7.10;99.90;;;;;;5067585;28;20143;-71
2023/05/19 01:48:40;;;;;;;17.30;7.15;;;7.00;99.90;;;;;;5058711;28;20136;-71
2023/05/19 01:51:05;;;;;;;16.88;6.20;;;7.00;99.90;;;;;;5066156;28;20115;-71
2023/05/19 01:53:31;;;;;;;16.90;6.37;;;7.00;99.90;;;;;;5072989;28;20131;-71
2023/05/19 01:55:58;;;;;;;21.80;6.40;;;7.00;99.90;;;;;;5062918;28;20069;-71
2023/05/19 01:58:26;;;;;;;16.33;6.25;;;7.00;99.90;;;;;;5066319;28;20033;-71
2023/05/19 02:00:53;;;;;;;15.68;6.18;;;7.00;99.90;;;;;;5049836;28;20044;-71
2023/05/19 02:03:40;;;;;;;11.75;5.78;;;7.00;99.90;;;;;;5066517;28;20488;-71
2023/05/19 02:06:41;;;;;;;19.38;6.18;;;7.00;99.90;;;;;;5066693;28;20139;-71
2023/05/19 02:09:24;;;;;;;15.32;6.47;;;7.00;99.90;;;;;;5050700;28;20045;-71
2023/05/19 02:11:49;;;;;;;16.55;6.18;;;7.00;99.90;;;;;;5065799;28;20492;-71
2023/05/19 02:14:23;;;;;;;15.07;5.57;;;7.10;99.90;;;;;;5063544;28;20086;-71
2023/05/19 02:16:51;;;;;;;14.88;6.15;;;7.00;99.90;;;;;;5059180;28;20032;-71
2023/05/19 02:19:33;;;;;;;14.18;5.45;;;7.10;99.90;;;;;;5050392;28;20544;-71
2023/05/19 02:21:58;;;;;;;17.13;5.65;;;7.10;99.90;;;;;;5065936;28;20033;-71
2023/05/19 02:24:25;;;;;;;16.60;6.40;;;7.10;99.90;;;;;;5056056;28;20060;-71
2023/05/19 02:26:52;;;;;;;11.38;5.15;;;7.10;99.90;;;;;;5050408;28;20047;-71
2023/05/19 02:29:18;;;;;;;16.23;5.40;;;7.10;99.90;;;;;;5074353;28;20130;-71
2023/05/19 02:31:44;;;;;;;17.95;6.30;;;7.10;99.90;;;;;;5068692;28;20040;-71
2023/05/19 02:34:10;;;;;;;14.90;5.87;;;7.10;99.90;;;;;;5072078;28;20042;-71
2023/05/19 02:36:37;;;;;;;13.20;4.80;;;7.10;99.90;;;;;;5089462;28;20036;-71
2023/05/19 02:39:03;;;;;;;13.82;5.13;;;7.00;99.90;;;;;;5070864;28;20267;-71
2023/05/19 02:41:30;;;;;;;18.10;5.30;;;7.00;99.90;;;;;;5090866;28;20546;-71
2023/05/19 02:43:56;;;;;;;17.95;6.03;;;7.00;99.90;;;;;;5088919;28;20043;-71
2023/05/19 02:46:23;;;;;;;10.63;4.72;;;7.00;99.90;;;;;;5090682;28;20479;-71
2023/05/19 02:48:49;;;;;;;14.57;5.05;;;6.90;99.90;;;;;;5096289;28;20039;-71
2023/05/19 02:51:15;;;;;;;15.60;5.13;;;7.00;99.90;;;;;;5071600;28;20055;-71
2023/05/19 02:53:41;;;;;;;16.40;5.07;;;7.00;99.90;;;;;;5091067;28;20036;-71
2023/05/19 02:56:06;;;;;;;17.43;5.20;;;7.00;99.90;;;;;;5073402;28;20044;-71
2023/05/19 02:58:32;;;;;;;13.83;4.93;;;7.00;99.90;;;;;;5073338;28;20475;-71
2023/05/19 03:00:58;;;;;;;18.53;4.93;;;7.00;99.90;;;;;;5090002;28;20039;-71
2023/05/19 03:03:23;;;;;;;14.50;4.60;;;7.00;99.90;;;;;;5088231;28;20036;-71
2023/05/19 03:05:49;;;;;;;17.60;5.20;;;7.00;99.90;;;;;;5088851;28;20495;-71
2023/05/19 03:08:15;;;;;;;13.23;4.43;;;7.00;99.90;;;;;;5089569;28;20135;-71
2023/05/19 03:10:40;;;;;;;18.27;4.43;;;7.10;99.90;;;;;;5088505;28;20130;-71
2023/05/19 03:13:06;;;;;;;12.27;4.27;;;7.00;99.90;;;;;;5064224;28;20043;-71
2023/05/19 03:15:33;;;;;;;10.30;4.70;;;7.00;99.90;;;;;;5086814;28;20042;-71
2023/05/19 03:17:58;;;;;;;20.70;4.57;;;7.00;99.90;;;;;;5089831;28;20036;-71
2023/05/19 03:20:24;;;;;;;17.70;4.77;;;7.00;99.90;;;;;;5089814;28;20042;-71
2023/05/19 03:22:50;;;;;;;20.50;5.33;;;7.00;99.90;;;;;;5075632;28;20411;-71
2023/05/19 03:25:16;;;;;;;19.37;5.07;;;7.00;99.90;;;;;;5073791;28;20031;-71
2023/05/19 03:27:42;;;;;;;14.07;4.95;;;7.00;99.90;;;;;;5090855;28;20083;-71
2023/05/19 03:30:08;;;;;;;19.77;4.77;;;7.00;99.90;;;;;;5072730;28;20067;-71
2023/05/19 03:32:36;;;;;;;14.75;4.60;;;7.00;99.90;;;;;;5089805;28;20449;-71
2023/05/19 03:35:04;;;;;;;19.08;5.05;;;6.90;99.90;;;;;;5089738;28;20055;-71
2023/05/19 03:37:29;;;;;;;17.98;4.80;;;6.90;99.90;;;;;;5072687;28;20035;-71
2023/05/19 03:39:56;;;;;;;17.83;4.70;;;6.90;99.90;;;;;;5089486;28;20424;-71
2023/05/19 03:42:22;;;;;;;15.98;4.88;;;6.90;99.90;;;;;;5073769;28;20105;-71
2023/05/19 03:44:47;;;;;;;16.67;5.50;;;7.00;99.90;;;;;;5089092;28;20495;-71
2023/05/19 03:47:13;;;;;;;13.23;5.37;;;7.10;99.90;;;;;;5091069;28;20128;-71
2023/05/19 03:49:39;;;;;;;17.83;6.07;;;7.10;99.90;;;;;;5087609;28;20051;-71
2023/05/19 03:52:05;;;;;;;16.03;5.57;;;7.10;99.90;;;;;;5088655;28;20542;-71
2023/05/19 03:54:31;;;;;;;17.07;5.60;;;7.20;99.90;;;;;;5089531;28;20046;-71
2023/05/19 03:56:56;;;;;;;15.50;5.77;;;7.20;99.90;;;;;;5090305;28;20499;-71
2023/05/19 03:59:23;;;;;;;15.20;4.97;;;7.20;99.90;;;;;;5091624;27;20496;-71
2023/05/19 04:01:49;;;;;;;19.15;5.35;;;7.20;99.90;;;;;;5083125;27;20040;-71
2023/05/19 04:04:15;;;;;;;16.02;5.55;;;7.30;99.90;;;;;;5076187;28;20122;-71
2023/05/19 04:06:40;;;;;;;20.00;5.80;;;7.30;99.90;;;;;;5065733;28;20180;-71
2023/05/19 04:09:13;;;;;;;20.03;5.60;;;7.30;99.90;;;;;;5092515;28;20040;-71
2023/05/19 04:11:40;;;;;;;18.73;6.18;;;7.30;99.90;;;;;;5092295;28;20514;-72
2023/05/19 04:14:06;;;;;;;16.55;5.70;;;7.40;99.90;;;;;;5092938;28;20051;-72
2023/05/19 04:16:32;;;;;;;14.32;5.32;;;7.40;99.90;;;;;;5092725;28;20055;-72
2023/05/19 04:18:58;;;;;;;19.40;6.20;;;7.40;99.90;;;;;;5075656;28;20050;-72
2023/05/19 04:21:24;;;;;;;15.10;5.33;;;7.50;99.90;;;;;;5075806;28;20027;-72
2023/05/19 04:23:50;;;;;;;15.90;5.30;;;7.50;99.90;;;;;;5092604;28;20115;-72
2023/05/19 04:26:16;;;;;;;15.83;5.73;;;7.50;99.90;;;;;;5093628;28;20552;-72
2023/05/19 04:28:43;;;;;;;15.85;5.88;;;7.60;99.90;;;;;;5075685;28;20119;-72
2023/05/19 04:31:13;;;;;;;19.27;6.07;;;7.60;99.90;;;;;;5082273;28;20157;-72
2023/05/19 04:33:39;;;;;;;18.25;5.85;;;7.70;99.90;;;;;;5088434;28;20135;-72
2023/05/19 04:36:10;;;;;;;19.27;5.63;;;7.70;99.90;;;;;;5089031;28;20069;-72
2023/05/19 04:38:38;;;;;;;12.13;5.30;;;7.80;99.90;;;;;;5070267;28;20063;-72
2023/05/19 04:41:08;;;;;;;15.32;6.20;;;7.80;99.90;;;;;;5066352;28;20568;-71
2023/05/19 04:43:34;;;;;;;24.52;5.43;;;7.80;99.90;;;;;;5089514;28;20492;-71
2023/05/19 04:46:00;;;;;;;16.30;5.20;;;7.90;99.90;;;;;;5088908;28;20036;-71
2023/05/19 04:48:29;;;;;;;20.48;5.75;;;7.90;99.90;;;;;;5072098;28;20036;-71
2023/05/19 04:50:55;;;;;;;16.02;5.43;;;8.00;99.90;;;;;;5063930;28;20058;-72
2023/05/19 04:53:21;;;;;;;24.33;5.77;;;8.30;99.90;;;;;;5070423;28;20032;-72
2023/05/19 04:55:46;;;;;;;16.00;5.73;;;8.80;99.90;;;;;;5090043;28;20104;-72
2023/05/19 04:58:12;;;;;;;17.73;5.67;;;9.50;99.90;;;;;;5071573;28;20039;-72
2023/05/19 05:00:38;;;;;;;12.30;5.30;;;10.10;99.90;;;;;;5088295;28;20498;-72
2023/05/19 05:03:03;;;;;;;18.87;5.50;;;10.80;99.90;;;;;;5094924;28;20035;-72
2023/05/19 05:05:30;;;;;;;13.90;5.20;;;11.20;99.90;;;;;;5070920;28;20480;-72
2023/05/19 05:07:57;;;;;;;15.27;4.80;;;11.60;99.90;;;;;;5086024;28;20040;-72
2023/05/19 05:10:23;;;;;;;14.35;5.28;;;12.10;99.90;;;;;;5070434;28;20085;-72
2023/05/19 05:12:49;;;;;;;11.27;4.53;;;12.40;99.90;;;;;;5071337;28;20043;-72
2023/05/19 05:15:15;;;;;;;17.45;5.00;;;12.60;99.90;;;;;;5087088;28;20492;-72
2023/05/19 05:17:42;;;;;;;15.00;4.40;;;12.80;99.90;;;;;;5087831;28;20453;-72
2023/05/19 05:20:08;;;;;;;20.67;5.50;;;12.90;99.90;;;;;;5088127;28;20032;-72
2023/05/19 05:22:35;;;;;;;12.20;4.20;;;12.90;99.90;;;;;;5088255;28;20115;-72
2023/05/19 05:25:01;;;;;;;12.93;3.80;;;12.80;99.90;;;;;;5071249;28;20495;-72
2023/05/19 05:27:27;;;;;;;10.52;4.10;;;13.00;99.90;;;;;;5093096;28;20120;-72
2023/05/19 05:29:53;;;;;;;9.30;4.23;;;12.90;99.90;;;;;;5089531;28;20469;-72
2023/05/19 05:32:18;;;;;;;12.73;4.43;;;12.60;99.90;;;;;;5088689;28;20079;-72
2023/05/19 05:34:44;;;;;;;12.90;4.80;;;12.60;99.90;;;;;;5070437;28;20350;-72
2023/05/19 05:37:10;;;;;;;14.63;4.97;;;12.60;99.90;;;;;;5068642;28;20471;-72
2023/05/19 05:39:36;;;;;;;14.37;5.00;;;12.90;99.90;;;;;;5067608;28;20373;-72
2023/05/19 05:42:02;;;;;;;15.00;4.90;;;13.20;99.90;;;;;;5087130;28;20522;-72
2023/05/19 05:44:27;;;;;;;12.47;4.73;;;13.30;99.90;;;;;;5087580;28;20040;-72
2023/05/19 05:46:53;;;;;;;13.23;4.20;;;13.20;99.90;;;;;;5086781;28;20215;-72
2023/05/19 05:49:19;;;;;;;10.32;4.20;;;13.00;99.90;;;;;;5070224;28;20496;-72
2023/05/19 05:51:45;;;;;;;14.47;4.97;;;12.60;99.90;;;;;;5067163;28;20048;-72
2023/05/19 05:54:12;;;;;;;13.80;4.85;;;12.40;99.90;;;;;;5069896;28;20793;-72
2023/05/19 05:56:38;;;;;;;10.60;4.40;;;12.30;99.90;;;;;;5087518;28;20036;-72
2023/05/19 05:59:04;;;;;;;11.27;4.70;;;12.10;99.90;;;;;;5071094;28;20282;-72
2023/05/19 06:01:30;;;;;;;15.43;4.80;;;12.10;99.90;;;;;;5087921;28;20294;-72
2023/05/19 06:03:56;;;;;;;13.93;4.57;;;12.00;99.90;;;;;;5088306;28;20285;-72
2023/05/19 06:06:22;;;;;;;16.30;4.47;;;11.90;99.90;;;;;;5068736;28;20055;-72
2023/05/19 06:08:47;;;;;;;8.83;4.37;;;11.90;99.90;;;;;;5070985;28;20040;-72
2023/05/19 06:11:13;;;;;;;11.40;4.80;;;12.30;99.90;;;;;;5069872;28;20043;-72
2023/05/19 06:13:41;;;;;;;13.17;4.73;;;12.70;99.90;;;;;;5085817;28;20036;-72
2023/05/19 06:16:08;;;;;;;12.00;4.87;;;13.20;99.90;;;;;;5069567;28;20420;-72
2023/05/19 06:18:33;;;;;;;10.07;4.20;;;13.90;99.90;;;;;;5068464;28;20294;-72
2023/05/19 06:21:00;;;;;;;11.70;3.90;;;14.10;99.90;;;;;;5069407;28;20302;-72
2023/05/19 06:23:27;;;;;;;9.60;4.17;;;14.10;99.90;;;;;;5086344;28;20075;-72
2023/05/19 06:25:53;;;;;;;12.30;4.53;;;14.50;99.90;;;;;;5087350;28;20862;-72
2023/05/19 06:28:19;;;;;;;10.43;4.53;;;15.10;98.60;;;;;;5087316;28;20306;-72
2023/05/19 06:30:45;;;;;;;7.67;3.43;;;15.80;94.40;;;;;;5086423;28;20064;-72
2023/05/19 06:33:11;;;;;;;11.97;4.67;;;16.20;91.30;;;;;;5089363;28;20043;-73
2023/05/19 06:35:37;;;;;;;11.73;3.97;;;16.50;90.20;;;;;;5089059;28;20051;-73
2023/05/19 06:38:03;;;;;;;10.93;3.90;;;17.00;88.40;;;;;;5087668;28;20036;-74
2023/05/19 06:40:28;;;;;;;11.53;4.23;;;17.30;85.70;;;;;;5071962;28;20820;-73
2023/05/19 06:42:54;;;;;;;10.37;4.57;;;17.40;84.10;;;;;;5086751;28;20140;-73
2023/05/19 06:45:21;;;;;;;11.27;4.37;;;17.50;83.90;;;;;;5086475;28;20047;-73
2023/05/19 06:47:47;;;;;;;8.13;3.50;;;17.50;83.30;;;;;;5071114;28;20495;-73
2023/05/19 06:50:13;;;;;;;10.37;4.00;;;17.50;83.30;;;;;;5080097;28;20310;-73
2023/05/19 06:52:39;;;;;;;9.00;3.77;;;17.50;83.10;;;;;;5070859;28;20298;-73
2023/05/19 06:55:06;;;;;;;10.33;3.30;;;17.40;82.80;;;;;;5069367;28;20427;-73
2023/05/19 06:57:31;;;;;;;11.67;3.60;;;17.20;81.90;;;;;;5086417;28;20828;-74
2023/05/19 06:59:57;;;;;;;9.67;3.57;;;16.90;81.50;;;;;;5088057;28;20286;-72
2023/05/19 07:02:23;;;;;;;10.47;3.20;;;16.50;81.60;;;;;;5083550;28;20043;-73
2023/05/19 07:04:51;;;;;;;9.87;3.13;;;16.20;83.70;;;;;;5086500;28;20058;-73
2023/05/19 07:07:17;;;;;;;9.40;3.47;;;15.90;84.40;;;;;;5088817;28;20385;-73
2023/05/19 07:09:43;;;;;;;8.37;3.07;;;15.60;85.60;;;;;;5085812;28;20304;-72
2023/05/19 07:12:08;;;;;;;10.40;3.43;;;15.30;86.10;;;;;;5086442;28;20050;-74
2023/05/19 07:14:35;;;;;;;8.60;2.97;;;14.90;86.10;;;;;;5069719;28;20445;-74
2023/05/19 07:17:01;;;;;;;12.90;3.63;;;14.70;88.40;;;;;;5069176;28;20036;-73
2023/05/19 07:19:26;;;;;;;8.40;3.23;;;14.60;90.20;;;;;;5085572;28;20305;-73
2023/05/19 07:21:53;;;;;;;11.07;3.17;;;14.60;90.40;;;;;;5063412;28;20042;-73
2023/05/19 07:24:20;;;;;;;5.97;2.10;;;14.60;89.00;;;;;;5070747;28;20407;-74
2023/05/19 07:26:45;;;;;;;7.87;2.80;;;14.70;87.10;;;;;;5070597;28;20294;-72
2023/05/19 07:29:11;;;;;;;9.57;2.70;;;14.70;84.80;;;;;;5088684;28;20723;-74
2023/05/19 07:31:37;;;;;;;5.87;2.77;;;14.70;83.50;;;;;;5091739;27;20100;-72
2023/05/19 07:34:03;;;;;;;8.73;3.07;;;14.70;82.50;;;;;;5077637;28;20347;-73
2023/05/19 07:36:30;;;;;;;11.33;3.60;;;14.70;84.00;;;;;;5095546;28;20301;-72
2023/05/19 07:38:56;;;;;;;9.87;3.10;;;14.70;83.90;;;;;;5078293;28;20093;-72
2023/05/19 07:41:21;;;;;;;6.57;3.23;;;14.80;84.10;;;;;;5093981;28;20297;-72
2023/05/19 07:43:48;;;;;;;12.47;3.47;;;14.90;83.90;;;;;;5094071;28;20036;-72
2023/05/19 07:46:13;;;;;;;10.40;2.70;;;15.00;81.30;;;;;;5095325;28;20488;-73
2023/05/19 07:48:39;;;;;;;7.40;3.03;;;14.90;81.90;;;;;;5076401;28;20393;-72
2023/05/19 07:51:08;;;;;;;9.33;3.23;;;14.90;82.30;;;;;;5076174;28;20074;-74
2023/05/19 07:53:35;;;;;;;8.23;2.80;;;14.90;80.60;;;;;;5092414;28;20507;-72
2023/05/19 07:56:01;;;;;;;8.10;3.10;;;14.90;81.30;;;;;;5092538;28;20309;-73
2023/05/19 07:58:27;;;;;;;11.17;2.50;;;15.00;79.90;;;;;;5094469;28;20305;-73
2023/05/19 08:00:55;;;;;;;6.40;2.63;;;15.00;80.10;;;;;;5077025;28;20793;-73
2023/05/19 08:03:22;;;;;;;9.67;2.77;;;15.00;79.40;;;;;;5095086;28;20147;-72
2023/05/19 08:05:47;;;;;;;9.23;2.43;;;15.10;79.50;;;;;;5079051;28;20653;-74
2023/05/19 08:08:15;;;;;;;8.23;2.70;;;15.20;76.60;;;;;;5095982;28;20320;-73
2023/05/19 08:10:41;;;;;;;7.43;2.70;;;15.20;76.90;;;;;;5073775;28;20100;-73
2023/05/19 08:13:07;;;;;;;9.43;2.77;;;15.20;76.80;;;;;;5076770;28;20282;-73
2023/05/19 08:15:33;;;;;;;7.30;2.23;;;15.30;77.20;;;;;;5094416;28;20301;-74
2023/05/19 08:17:58;;;;;;;7.67;2.70;;;15.40;76.30;;;;;;5096674;28;20103;-73
2023/05/19 08:20:24;;;;;;;7.00;2.60;;;15.50;76.90;;;;;;5096773;27;20035;-73
2023/05/19 08:22:50;;;;;;;7.87;2.70;;;15.60;77.20;;;;;;5095124;28;20380;-72
2023/05/19 08:25:16;;;;;;;8.33;2.63;;;15.70;73.40;;;;;;5097827;28;20040;-72
2023/05/19 08:27:41;;;;;;;5.90;2.30;;;15.70;74.70;;;;;;5077633;27;20035;-72
2023/05/19 08:30:08;;;;;;;10.10;3.17;;;15.80;74.10;;;;;;5099102;27;20369;-73
2023/05/19 08:32:33;;;;;;;7.53;2.60;;;15.90;70.80;;;;;;5097658;27;20039;-73
2023/05/19 08:34:59;;;;;;;10.37;2.90;;;15.90;70.70;;;;;;5097761;27;20282;-74
2023/05/19 08:37:25;;;;;;;9.50;3.13;;;16.00;68.60;;;;;;5099216;28;20444;-73
2023/05/19 08:39:50;;;;;;;8.67;2.80;;;16.00;67.70;;;;;;5092578;28;20182;-73
2023/05/19 08:42:16;;;;;;;6.83;2.37;;;16.00;67.30;;;;;;5092867;28;20035;-74
2023/05/19 08:44:42;;;;;;;9.43;2.60;;;15.90;69.40;;;;;;5076787;28;20042;-72
2023/05/19 08:47:12;;;;;;;10.10;2.87;;;15.90;68.70;;;;;;5081169;28;20039;-73
2023/05/19 08:49:46;;;;;;;7.33;3.17;;;15.90;68.90;;;;;;5094088;27;20281;-73
2023/05/19 08:52:14;;;;;;;7.10;2.47;;;15.90;69.80;;;;;;5091707;28;20293;-73
2023/05/19 08:54:54;;;;;;;10.17;2.67;;;16.10;68.10;;;;;;5074168;28;20282;-73
2023/05/19 08:57:23;;;;;;;6.33;2.57;;;16.20;66.10;;;;;;5092456;27;20369;-72
2023/05/19 08:59:50;;;;;;;10.30;2.57;;;16.40;63.60;;;;;;5075950;28;20294;-72
2023/05/19 09:02:18;;;;;;;7.03;2.73;;;16.50;65.10;;;;;;5089363;28;20294;-72
2023/05/19 09:04:46;;;;;;;7.67;2.60;;;16.70;64.80;;;;;;5085827;28;20281;-72
2023/05/19 09:07:15;;;;;;;8.57;2.70;;;16.90;65.00;;;;;;5090881;28;20305;-72
2023/05/19 09:09:42;;;;;;;7.20;3.33;;;17.10;63.60;;;;;;5093637;27;20851;-72
2023/05/19 09:12:12;;;;;;;10.00;2.67;;;17.20;63.20;;;;;;5091733;27;20285;-73
2023/05/19 09:14:38;;;;;;;10.97;2.77;;;17.30;62.70;;;;;;5087136;27;20464;-73
2023/05/19 09:17:05;;;;;;;7.07;2.30;;;17.40;60.90;;;;;;5087129;27;20669;-73
2023/05/19 09:19:31;;;;;;;8.40;2.97;;;17.40;60.70;;;;;;5071984;28;20076;-73
2023/05/19 09:22:03;;;;;;;8.23;2.53;;;17.50;60.00;;;;;;5091307;28;20286;-73
2023/05/19 09:24:29;;;;;;;5.70;2.50;;;17.50;59.50;;;;;;5085872;28;20039;-73
2023/05/19 09:26:56;;;;;;;6.20;2.43;;;17.60;61.20;;;;;;5090647;28;20297;-73
2023/05/19 09:29:22;;;;;;;8.70;3.40;;;17.70;58.60;;;;;;5070679;28;20320;-73
2023/05/19 09:31:49;;;;;;;7.73;3.30;;;17.70;58.50;;;;;;5090885;28;20338;-73
2023/05/19 09:34:15;;;;;;;8.17;2.50;;;17.80;56.60;;;;;;5090620;28;20297;-73
2023/05/19 09:36:41;;;;;;;6.03;2.50;;;17.80;58.00;;;;;;5072406;28;20494;-73
2023/05/19 09:39:15;;;;;;;9.07;2.70;;;17.80;57.70;;;;;;5070433;28;20347;-73
2023/05/19 09:41:41;;;;;;;9.53;3.17;;;17.90;57.20;;;;;;5074047;28;20377;-73
2023/05/19 09:44:11;;;;;;;8.13;2.63;;;17.90;55.20;;;;;;5072298;28;20293;-73
2023/05/19 09:46:37;;;;;;;6.97;2.80;;;17.80;53.30;;;;;;5072943;28;20112;-73
2023/05/19 09:49:09;;;;;;;6.77;2.80;;;17.70;54.10;;;;;;5089772;28;20301;-73
2023/05/19 09:51:40;;;;;;;9.97;3.30;;;17.60;54.10;;;;;;5090724;28;20051;-73
2023/05/19 09:54:08;;;;;;;8.10;2.80;;;17.60;55.00;;;;;;5072325;28;20289;-73
2023/05/19 09:56:35;;;;;;;8.63;3.00;;;17.50;53.80;;;;;;5064871;28;20366;-73
2023/05/19 09:59:02;;;;;;;6.77;2.53;;;17.50;54.90;;;;;;5086467;28;20640;-73
2023/05/19 10:01:30;;;;;;;9.47;3.03;;;17.50;55.60;;;;;;5073484;28;20891;-73
2023/05/19 10:03:56;;;;;;;7.47;3.00;;;17.60;55.60;;;;;;5089876;28;20294;-73
2023/05/19 10:06:23;;;;;;;7.93;3.10;;;17.60;55.20;;;;;;5081636;28;20340;-73
2023/05/19 10:08:50;;;;;;;5.80;2.70;;;17.70;54.40;;;;;;5069398;28;20291;-73
2023/05/19 10:11:16;;;;;;;5.77;2.97;;;17.80;55.50;;;;;;5072409;28;20972;-73
2023/05/19 10:13:44;;;;;;;9.47;2.83;;;17.90;56.20;;;;;;5087172;28;20281;-73
2023/05/19 10:16:12;;;;;;;6.73;3.40;;;18.00;55.10;;;;;;5070741;28;20348;-73
2023/05/19 10:18:39;;;;;;;6.50;3.37;;;18.10;55.00;;;;;;5088082;28;20362;-73
2023/05/19 10:21:07;;;;;;;8.03;3.97;;;18.20;55.40;;;;;;5089002;28;20360;-73
2023/05/19 10:23:33;;;;;;;7.90;3.10;;;18.30;54.00;;;;;;5089636;28;20281;-73
2023/05/19 10:26:00;;;;;;;10.13;3.20;;;18.30;54.60;;;;;;5069133;28;20355;-73
2023/05/19 10:28:34;;;;;;;9.03;3.30;;;18.30;54.60;;;;;;5079979;28;20127;-73
2023/05/19 10:31:03;;;;;;;10.73;3.80;;;18.20;53.40;;;;;;5072254;28;20333;-73
2023/05/19 10:33:58;;;;;;;6.57;3.23;;;18.30;52.70;;;;;;5062553;28;20380;-72
2023/05/19 10:36:32;;;;;;;6.90;3.17;;;18.30;53.00;;;;;;5041126;28;20310;-73
2023/05/19 10:39:12;;;;;;;9.17;3.73;;;18.40;50.50;;;;;;5082959;28;20300;-73
2023/05/19 10:42:20;;;;;;;9.77;3.83;;;18.40;51.30;;;;;;5086653;28;20380;-72
2023/05/19 10:44:58;;;;;;;9.53;4.03;;;18.50;53.20;;;;;;5086748;28;20289;-73
2023/05/19 10:47:24;;;;;;;9.90;4.30;;;18.50;54.50;;;;;;5087456;28;20301;-72
2023/05/19 10:49:54;;;;;;;11.00;3.87;;;18.50;54.00;;;;;;5088484;28;20813;-73
2023/05/19 10:52:28;;;;;;;6.53;3.63;;;18.60;54.80;;;;;;5068217;28;20299;-73
2023/05/19 10:54:54;;;;;;;7.07;3.50;;;18.80;54.30;;;;;;5087213;28;20672;-72
2023/05/19 10:57:27;;;;;;;7.40;3.80;;;18.90;54.40;;;;;;5088579;28;20844;-72
2023/05/19 10:59:55;;;;;;;8.23;3.00;;;18.90;52.30;;;;;;5085952;28;20666;-72
2023/05/19 11:02:43;;;;;;;7.10;3.47;;;18.80;52.20;;;;;;5086589;28;20274;-72
2023/05/19 11:05:15;;;;;;;10.07;3.87;;;18.50;50.90;;;;;;5088839;28;20301;-73
2023/05/19 11:07:55;;;;;;;6.70;2.77;;;18.30;50.70;;;;;;5089260;28;20461;-73
2023/05/19 11:10:24;;;;;;;6.57;3.27;;;18.10;51.40;;;;;;5088481;28;21007;-73
2023/05/19 11:12:50;;;;;;;9.00;3.40;;;18.00;51.90;;;;;;5082747;28;20357;-73
2023/05/19 11:15:16;;;;;;;10.43;3.73;;;18.00;51.30;;;;;;5087376;27;20284;-72
2023/05/19 11:17:47;;;;;;;7.13;3.37;;;18.10;52.60;;;;;;5074897;28;20286;-73
2023/05/19 11:20:26;;;;;;;6.57;2.83;;;18.20;52.60;;;;;;5091500;28;20770;-72
2023/05/19 11:23:08;;;;;;;6.63;2.80;;;18.40;51.80;;;;;;5076666;28;20285;-72
2023/05/19 11:25:54;;;;;;;6.67;2.67;;;18.60;50.00;;;;;;5072181;28;20297;-72
2023/05/19 11:28:25;;;;;;;10.20;2.83;;;18.70;49.10;;;;;;5089979;28;20304;-72
2023/05/19 11:30:53;;;;;;;8.10;2.50;;;18.70;48.90;;;;;;5068706;28;22179;-73
2023/05/19 11:33:20;;;;;;;8.67;2.57;;;18.70;48.60;;;;;;5085498;28;20389;-73
2023/05/19 11:35:49;;;;;;;5.87;2.30;;;18.60;48.20;;;;;;5073278;28;20344;-73
2023/05/19 11:38:19;;;;;;;7.13;2.57;;;18.70;48.30;;;;;;5073829;28;20390;-72
2023/05/19 11:40:47;;;;;;;9.23;3.13;;;18.70;49.60;;;;;;5064192;28;20380;-72
2023/05/19 11:43:12;;;;;;;8.23;3.50;;;19.00;49.90;;;;;;5085918;28;20293;-73
2023/05/19 11:45:38;;;;;;;7.83;3.20;;;19.10;50.10;;;;;;5088252;28;20311;-72
2023/05/19 11:48:05;;;;;;;7.27;3.23;;;19.20;50.60;;;;;;5093659;28;20043;-72
2023/05/19 11:50:32;;;;;;;9.33;3.30;;;19.20;50.90;;;;;;5087522;28;20075;-73
2023/05/19 11:53:00;;;;;;;8.30;3.30;;;19.30;50.40;;;;;;5074177;28;20293;-72
2023/05/19 11:55:25;;;;;;;9.30;3.40;;;19.40;50.60;;;;;;5089027;28;20336;-73
2023/05/19 11:58:03;;;;;;;7.57;3.23;;;19.40;50.60;;;;;;5091001;28;20039;-72
2023/05/19 12:00:35;;;;;;;6.07;3.53;;;19.50;50.70;;;;;;5096347;28;20035;-72
2023/05/19 12:03:02;;;;;;;7.67;3.40;;;19.50;48.90;;;;;;5086770;28;20126;-73
2023/05/19 12:05:28;;;;;;;5.67;2.80;;;19.40;49.50;;;;;;5073215;28;20364;-73
2023/05/19 12:07:54;;;;;;;7.17;3.30;;;19.40;50.00;;;;;;5089289;28;20301;-72
2023/05/19 12:10:29;;;;;;;7.73;3.40;;;19.50;49.30;;;;;;5086218;28;20297;-73
2023/05/19 12:12:56;;;;;;;5.93;2.80;;;19.60;50.00;;;;;;5086620;28;20293;-73
2023/05/19 12:15:25;;;;;;;7.20;2.67;;;19.60;48.40;;;;;;5091433;28;20038;-73
2023/05/19 12:17:56;;;;;;;8.70;3.20;;;19.60;49.50;;;;;;5089629;28;20281;-73
2023/05/19 12:20:26;;;;;;;6.90;2.87;;;19.60;48.30;;;;;;5090847;28;20288;-73
2023/05/19 12:22:56;;;;;;;8.03;2.83;;;19.70;49.80;;;;;;5075199;28;20082;-73
2023/05/19 12:25:23;;;;;;;6.77;3.10;;;19.70;46.30;;;;;;5088271;28;20718;-72
2023/05/19 12:27:51;;;;;;;6.67;2.77;;;19.60;48.00;;;;;;5090255;28;20291;-72
2023/05/19 12:30:18;;;;;;;8.97;2.67;;;19.60;48.50;;;;;;5092846;28;20298;-73
2023/05/19 12:32:45;;;;;;;6.47;2.83;;;19.60;48.30;;;;;;5064993;28;20277;-74
2023/05/19 12:35:11;;;;;;;7.00;3.03;;;19.70;48.90;;;;;;5094884;28;20043;-73
2023/05/19 12:37:41;;;;;;;8.00;2.90;;;19.90;48.90;;;;;;5097318;28;20097;-73
2023/05/19 12:40:08;;;;;;;8.47;2.90;;;20.00;47.60;;;;;;5094225;28;20090;-74
2023/05/19 12:42:34;;;;;;;7.50;2.43;;;19.90;47.50;;;;;;5094771;28;20070;-74
2023/05/19 12:45:03;;;;;;;7.00;2.90;;;20.00;47.70;;;;;;5075202;28;20039;-73
2023/05/19 12:47:34;;;;;;;8.03;2.53;;;20.10;47.60;;;;;;5094923;28;20452;-74
2023/05/19 12:50:00;;;;;;;10.80;3.27;;;20.10;46.30;;;;;;5094472;28;20087;-73